createdAt,value
2023-04-11T00:01:08.045Z,100.00
2023-04-11T00:03:35.063Z,100.00
2023-04-11T00:06:01.752Z,100.00
2023-04-11T00:08:28.266Z,100.00
2023-04-11T00:10:54.927Z,100.00
2023-04-11T00:13:21.560Z,100.00
2023-04-11T00:15:48.091Z,100.00
2023-04-11T00:18:14.998Z,100.00
2023-04-11T00:20:41.620Z,100.00
2023-04-11T00:23:08.777Z,100.00
2023-04-11T00:25:37.326Z,100.00
2023-04-11T00:28:04.435Z,100.00
2023-04-11T00:30:31.047Z,100.00
2023-04-11T00:32:57.677Z,100.00
2023-04-11T00:35:24.294Z,100.00
2023-04-11T00:37:56.074Z,100.00
2023-04-11T00:40:23.025Z,100.00
2023-04-11T00:42:49.612Z,100.00
2023-04-11T00:45:16.221Z,100.00
2023-04-11T00:47:43.072Z,100.00
2023-04-11T00:50:09.931Z,100.00
2023-04-11T00:52:38.006Z,100.00
2023-04-11T00:55:05.277Z,100.00
2023-04-11T00:57:32.304Z,100.00
2023-04-11T01:00:00.399Z,100.00
2023-04-11T01:02:27.052Z,100.00
2023-04-11T01:04:54.055Z,100.00
2023-04-11T01:07:24.597Z,100.00
2023-04-11T01:09:52.556Z,100.00
2023-04-11T01:12:21.541Z,100.00
2023-04-11T01:14:48.485Z,100.00
2023-04-11T01:17:15.806Z,100.00
2023-04-11T01:19:42.494Z,100.00
2023-04-11T01:22:11.222Z,100.00
2023-04-11T01:24:37.797Z,100.00
2023-04-11T01:27:04.390Z,100.00
2023-04-11T01:29:31.670Z,100.00
2023-04-11T01:31:58.269Z,100.00
2023-04-11T01:34:29.350Z,100.00
2023-04-11T01:36:56.148Z,100.00
2023-04-11T01:39:23.079Z,100.00
2023-04-11T01:41:50.833Z,100.00
2023-04-11T01:44:19.167Z,100.00
2023-04-11T01:46:46.956Z,100.00
2023-04-11T01:49:18.893Z,100.00
2023-04-11T01:51:46.033Z,100.00
2023-04-11T01:54:12.861Z,100.00
2023-04-11T01:56:39.468Z,100.00
2023-04-11T01:59:06.150Z,100.00
2023-04-11T02:04:14.453Z,100.00
2023-04-11T02:06:41.158Z,100.00
2023-04-11T02:09:10.625Z,100.00
2023-04-11T02:11:37.326Z,100.00
2023-04-11T02:14:04.042Z,100.00
2023-04-11T02:16:33.803Z,100.00
2023-04-11T02:19:00.529Z,100.00
2023-04-11T02:21:29.388Z,100.00
2023-04-11T02:23:56.034Z,100.00
2023-04-11T02:26:22.831Z,100.00
2023-04-11T02:28:49.436Z,100.00
2023-04-11T02:31:16.120Z,100.00
2023-04-11T02:33:42.799Z,100.00
2023-04-11T02:36:09.454Z,100.00
2023-04-11T02:38:37.680Z,100.00
2023-04-11T02:41:04.923Z,100.00
2023-04-11T02:43:31.532Z,100.00
2023-04-11T02:46:09.566Z,100.00
2023-04-11T02:48:40.476Z,100.00
2023-04-11T02:51:07.111Z,100.00
2023-04-11T02:53:33.803Z,100.00
2023-04-11T02:56:00.690Z,100.00
2023-04-11T02:58:30.396Z,100.00
2023-04-11T03:00:57.247Z,100.00
2023-04-11T03:03:23.928Z,100.00
2023-04-11T03:05:50.677Z,100.00
2023-04-11T03:08:17.243Z,100.00
2023-04-11T03:10:43.896Z,100.00
2023-04-11T03:13:10.575Z,100.00
2023-04-11T03:15:37.232Z,100.00
2023-04-11T03:18:04.204Z,100.00
2023-04-11T03:20:31.077Z,100.00
2023-04-11T03:22:57.707Z,100.00
2023-04-11T03:25:24.298Z,100.00
2023-04-11T03:27:51.111Z,100.00
2023-04-11T03:30:17.696Z,100.00
2023-04-11T03:32:44.400Z,100.00
2023-04-11T03:35:11.188Z,100.00
2023-04-11T03:37:37.828Z,100.00
2023-04-11T03:40:08.502Z,100.00
2023-04-11T03:42:46.646Z,100.00
2023-04-11T03:45:13.258Z,100.00
2023-04-11T03:47:41.751Z,100.00
2023-04-11T03:50:09.983Z,100.00
2023-04-11T03:52:37.140Z,100.00
2023-04-11T03:55:05.488Z,100.00
2023-04-11T03:57:36.597Z,100.00
2023-04-11T04:00:06.687Z,100.00
2023-04-11T04:02:33.716Z,100.00
2023-04-11T04:05:04.720Z,100.00
2023-04-11T04:07:40.451Z,100.00
2023-04-11T04:10:14.277Z,100.00
2023-04-11T04:12:40.988Z,100.00
2023-04-11T04:15:08.303Z,100.00
2023-04-11T04:17:36.580Z,100.00
2023-04-11T04:20:06.906Z,100.00
2023-04-11T04:22:34.067Z,100.00
2023-04-11T04:25:01.866Z,100.00
2023-04-11T04:27:30.162Z,100.00
2023-04-11T04:30:04.310Z,100.00
2023-04-11T04:32:34.859Z,100.00
2023-04-11T04:35:01.972Z,100.00
2023-04-11T04:37:34.286Z,100.00
2023-04-11T04:40:02.383Z,100.00
2023-04-11T04:42:48.152Z,100.00
2023-04-11T04:45:15.061Z,100.00
2023-04-11T04:47:46.685Z,100.00
2023-04-11T04:50:16.371Z,100.00
2023-04-11T04:52:49.466Z,100.00
2023-04-11T04:55:16.315Z,100.00
2023-04-11T04:57:42.934Z,100.00
2023-04-11T05:00:11.739Z,100.00
2023-04-11T05:02:45.767Z,100.00
2023-04-11T05:05:14.007Z,100.00
2023-04-11T05:07:41.024Z,100.00
2023-04-11T05:10:08.185Z,100.00
2023-04-11T05:12:38.077Z,100.00
2023-04-11T05:15:14.052Z,100.00
2023-04-11T05:17:40.844Z,100.00
2023-04-11T05:20:24.971Z,100.00
2023-04-11T05:22:59.263Z,100.00
2023-04-11T05:25:29.132Z,100.00
2023-04-11T05:27:58.399Z,100.00
2023-04-11T05:30:36.632Z,100.00
2023-04-11T05:33:52.921Z,100.00
2023-04-11T05:36:32.734Z,100.00
2023-04-11T05:42:12.902Z,100.00
2023-04-11T05:44:40.569Z,100.00
2023-04-11T05:47:42.714Z,100.00
2023-04-11T05:50:11.113Z,100.00
2023-04-11T05:52:37.810Z,100.00
2023-04-11T05:55:16.416Z,100.00
2023-04-11T05:57:50.992Z,100.00
2023-04-11T06:00:18.417Z,100.00
2023-04-11T06:02:46.453Z,100.00
2023-04-11T06:05:13.475Z,100.00
2023-04-11T06:07:41.412Z,100.00
2023-04-11T06:10:09.200Z,100.00
2023-04-11T06:12:36.576Z,100.00
2023-04-11T06:15:03.413Z,100.00
2023-04-11T06:17:30.127Z,100.00
2023-04-11T06:19:57.472Z,100.00
2023-04-11T06:22:24.564Z,100.00
2023-04-11T06:24:52.061Z,100.00
2023-04-11T06:27:18.641Z,100.00
2023-04-11T06:29:45.198Z,100.00
2023-04-11T06:32:12.364Z,100.00
2023-04-11T06:34:39.567Z,100.00
2023-04-11T06:37:09.717Z,100.00
2023-04-11T06:39:36.302Z,100.00
2023-04-11T06:44:51.312Z,100.00
2023-04-11T06:49:59.392Z,100.00
2023-04-11T06:58:03.196Z,100.00
2023-04-11T07:00:29.862Z,100.00
2023-04-11T07:02:56.812Z,100.00
2023-04-11T07:05:23.567Z,100.00
2023-04-11T07:07:50.117Z,100.00
2023-04-11T07:10:16.776Z,100.00
2023-04-11T07:12:43.361Z,100.00
2023-04-11T07:15:10.308Z,100.00
2023-04-11T07:17:37.000Z,100.00
2023-04-11T07:20:06.964Z,100.00
2023-04-11T07:22:33.733Z,100.00
2023-04-11T07:25:00.405Z,100.00
2023-04-11T07:27:26.944Z,100.00
2023-04-11T07:29:53.549Z,100.00
2023-04-11T07:32:20.138Z,100.00
2023-04-11T07:34:46.754Z,100.00
2023-04-11T07:37:13.370Z,100.00
2023-04-11T07:39:40.809Z,100.00
2023-04-11T07:42:07.916Z,100.00
2023-04-11T07:44:34.546Z,100.00
2023-04-11T07:47:01.120Z,100.00
2023-04-11T07:49:27.705Z,100.00
2023-04-11T07:51:54.260Z,100.00
2023-04-11T07:54:20.838Z,100.00
2023-04-11T07:56:47.432Z,100.00
2023-04-11T07:59:16.042Z,100.00
2023-04-11T08:01:42.904Z,100.00
2023-04-11T08:04:09.683Z,100.00
2023-04-11T08:06:36.518Z,100.00
2023-04-11T08:09:05.526Z,100.00
2023-04-11T08:11:32.149Z,100.00
2023-04-11T08:13:58.997Z,100.00
2023-04-11T08:16:25.945Z,100.00
2023-04-11T08:18:52.906Z,100.00
2023-04-11T08:21:19.596Z,100.00
2023-04-11T08:23:47.550Z,100.00
2023-04-11T08:26:14.220Z,100.00
2023-04-11T08:28:42.831Z,100.00
2023-04-11T08:31:13.049Z,100.00
2023-04-11T08:33:40.092Z,100.00
2023-04-11T08:36:10.168Z,100.00
2023-04-11T08:38:37.324Z,100.00
2023-04-11T08:41:03.921Z,100.00
2023-04-11T08:43:34.239Z,100.00
2023-04-11T08:46:04.918Z,100.00
2023-04-11T08:48:32.382Z,100.00
2023-04-11T08:50:59.410Z,100.00
2023-04-11T08:53:27.256Z,100.00
2023-04-11T08:55:53.908Z,100.00
2023-04-11T08:58:20.664Z,100.00
2023-04-11T09:00:47.201Z,100.00
2023-04-11T09:03:16.757Z,100.00
2023-04-11T09:05:49.545Z,100.00
2023-04-11T09:08:17.132Z,100.00
2023-04-11T09:10:45.600Z,100.00
2023-04-11T09:13:25.744Z,100.00
2023-04-11T09:16:09.429Z,100.00
2023-04-11T09:18:38.657Z,100.00
2023-04-11T09:21:10.886Z,100.00
2023-04-11T09:23:38.031Z,100.00
2023-04-11T09:26:08.810Z,100.00
2023-04-11T09:28:44.264Z,100.00
2023-04-11T09:31:13.255Z,100.00
2023-04-11T09:33:52.291Z,100.00
2023-04-11T09:36:21.622Z,100.00
2023-04-11T09:38:48.317Z,100.00
2023-04-11T09:41:15.307Z,100.00
2023-04-11T09:43:53.226Z,100.00
2023-04-11T09:46:21.320Z,100.00
2023-04-11T09:48:49.676Z,100.00
2023-04-11T09:51:28.214Z,100.00
2023-04-11T09:54:02.301Z,100.00
2023-04-11T09:56:29.066Z,100.00
2023-04-11T09:58:58.877Z,100.00
2023-04-11T10:01:25.706Z,100.00
2023-04-11T10:03:52.813Z,100.00
2023-04-11T10:06:31.866Z,100.00
2023-04-11T10:09:24.955Z,100.00
2023-04-11T10:11:51.626Z,99.47
2023-04-11T10:14:47.881Z,100.00
2023-04-11T10:17:19.795Z,100.00
2023-04-11T10:19:49.362Z,100.00
2023-04-11T10:22:41.499Z,99.84
2023-04-11T10:25:21.639Z,94.89
2023-04-11T10:28:03.804Z,97.68
2023-04-11T10:30:39.572Z,97.95
2023-04-11T10:33:17.590Z,95.76
2023-04-11T10:36:03.808Z,94.96
2023-04-11T10:38:49.049Z,97.35
2023-04-11T10:41:17.577Z,93.39
2023-04-11T10:43:45.891Z,86.74
2023-04-11T10:46:23.607Z,90.84
2023-04-11T10:49:02.129Z,84.96
2023-04-11T10:51:30.530Z,89.43
2023-04-11T10:54:00.192Z,93.56
2023-04-11T10:56:52.239Z,90.69
2023-04-11T10:59:31.313Z,88.88
2023-04-11T11:02:02.413Z,77.00
2023-04-11T11:04:37.328Z,77.25
2023-04-11T11:07:07.175Z,82.04
2023-04-11T11:09:34.909Z,81.25
2023-04-11T11:12:19.684Z,80.78
2023-04-11T11:14:47.237Z,85.63
2023-04-11T11:17:16.990Z,80.49
2023-04-11T11:19:45.169Z,77.51
2023-04-11T11:22:28.698Z,76.35
2023-04-11T11:24:55.232Z,75.13
2023-04-11T11:27:23.750Z,79.90
2023-04-11T11:29:51.300Z,75.79
2023-04-11T11:32:28.387Z,77.70
2023-04-11T11:34:55.643Z,77.83
2023-04-11T11:37:23.244Z,75.68
2023-04-11T11:39:50.673Z,75.33
2023-04-11T11:42:18.161Z,76.55
2023-04-11T11:44:44.703Z,80.84
2023-04-11T11:47:15.354Z,74.90
2023-04-11T11:49:50.934Z,74.93
2023-04-11T11:52:39.765Z,72.87
2023-04-11T11:55:11.275Z,67.35
2023-04-11T11:57:44.453Z,70.38
2023-04-11T12:00:11.838Z,70.61
2023-04-11T12:02:39.712Z,71.04
2023-04-11T12:05:07.812Z,64.22
2023-04-11T12:07:38.592Z,64.86
2023-04-11T12:10:11.636Z,66.54
2023-04-11T12:12:41.226Z,67.00
2023-04-11T12:15:12.526Z,64.40
2023-04-11T12:17:40.230Z,70.81
2023-04-11T12:20:08.434Z,69.03
2023-04-11T12:22:35.324Z,69.74
2023-04-11T12:25:05.949Z,65.74
2023-04-11T12:27:35.226Z,65.82
2023-04-11T12:30:02.059Z,63.04
2023-04-11T12:32:28.703Z,59.38
2023-04-11T12:34:55.507Z,66.84
2023-04-11T12:37:22.331Z,66.34
2023-04-11T12:39:48.876Z,65.60
2023-04-11T12:42:18.661Z,66.65
2023-04-11T12:44:47.925Z,66.65
2023-04-11T12:47:14.572Z,69.58
2023-04-11T12:49:41.355Z,68.34
2023-04-11T12:52:09.214Z,65.93
2023-04-11T12:54:36.316Z,62.45
2023-04-11T12:57:03.617Z,57.94
2023-04-11T12:59:32.339Z,59.89
2023-04-11T13:01:59.324Z,64.78
2023-04-11T13:04:26.188Z,65.27
2023-04-11T13:06:53.336Z,67.42
2023-04-11T13:09:19.908Z,65.52
2023-04-11T13:11:46.745Z,60.40
2023-04-11T13:14:13.333Z,62.09
2023-04-11T13:16:39.932Z,61.04
2023-04-11T13:19:06.675Z,59.58
2023-04-11T13:21:33.436Z,62.35
2023-04-11T13:24:00.028Z,58.33
2023-04-11T13:26:26.659Z,55.37
2023-04-11T13:28:53.196Z,55.61
2023-04-11T13:31:19.713Z,58.31
2023-04-11T13:33:48.039Z,58.95
2023-04-11T13:36:14.707Z,57.92
2023-04-11T13:38:41.353Z,56.26
2023-04-11T13:41:07.969Z,58.55
2023-04-11T13:43:37.443Z,57.97
2023-04-11T13:46:04.402Z,60.16
2023-04-11T13:48:31.224Z,59.06
2023-04-11T13:50:57.787Z,59.38
2023-04-11T13:53:24.526Z,58.70
2023-04-11T13:55:51.393Z,61.92
2023-04-11T13:58:18.110Z,55.98
2023-04-11T14:00:47.686Z,57.00
2023-04-11T14:03:14.685Z,57.13
2023-04-11T14:05:41.405Z,58.22
2023-04-11T14:08:08.252Z,57.12
2023-04-11T14:10:34.883Z,54.23
2023-04-11T14:13:02.497Z,55.49
2023-04-11T14:15:29.615Z,58.47
2023-04-11T14:17:56.332Z,58.78
2023-04-11T14:20:24.398Z,57.18
2023-04-11T14:22:51.504Z,54.77
2023-04-11T14:25:18.169Z,58.16
2023-04-11T14:27:45.032Z,54.90
2023-04-11T14:30:15.677Z,56.55
2023-04-11T14:32:42.275Z,60.94
2023-04-11T14:35:09.789Z,57.66
2023-04-11T14:37:36.797Z,55.08
2023-04-11T14:40:10.223Z,59.60
2023-04-11T14:42:39.639Z,54.89
2023-04-11T14:45:07.022Z,55.04
2023-04-11T14:47:33.703Z,57.89
2023-04-11T14:50:00.908Z,57.88
2023-04-11T14:52:28.655Z,57.30
2023-04-11T14:54:55.875Z,57.97
2023-04-11T14:57:22.790Z,55.85
2023-04-11T14:59:50.101Z,54.80
2023-04-11T15:02:16.835Z,54.46
2023-04-11T15:04:43.481Z,56.47
2023-04-11T15:07:10.063Z,56.50
2023-04-11T15:09:36.653Z,58.70
2023-04-11T15:12:03.215Z,56.31
2023-04-11T15:14:29.704Z,58.21
2023-04-11T15:16:56.896Z,59.06
2023-04-11T15:19:23.711Z,58.44
2023-04-11T15:21:50.298Z,59.91
2023-04-11T15:24:17.047Z,60.86
2023-04-11T15:26:47.194Z,58.41
2023-04-11T15:29:15.774Z,59.58
2023-04-11T15:31:42.435Z,61.22
2023-04-11T15:34:09.057Z,59.84
2023-04-11T15:36:38.453Z,61.91
2023-04-11T15:39:05.377Z,59.05
2023-04-11T15:41:34.803Z,59.49
2023-04-11T15:44:01.568Z,60.37
2023-04-11T15:46:29.314Z,62.22
2023-04-11T15:48:55.891Z,63.47
2023-04-11T15:51:22.436Z,64.99
2023-04-11T15:53:48.988Z,64.84
2023-04-11T15:56:15.514Z,65.84
2023-04-11T15:58:42.393Z,64.33
2023-04-11T16:01:25.577Z,64.39
2023-04-11T16:03:54.275Z,64.85
2023-04-11T16:06:22.483Z,61.49
2023-04-11T16:08:49.240Z,63.59
2023-04-11T16:11:15.825Z,65.96
2023-04-11T16:13:44.072Z,65.48
2023-04-11T16:16:11.475Z,66.24
2023-04-11T16:18:38.077Z,68.48
2023-04-11T16:21:13.407Z,66.68
2023-04-11T16:23:40.050Z,63.03
2023-04-11T16:26:06.986Z,64.31
2023-04-11T16:28:33.579Z,63.63
2023-04-11T16:31:00.448Z,62.07
2023-04-11T16:33:27.124Z,62.21
2023-04-11T16:35:53.651Z,65.70
2023-04-11T16:38:20.196Z,66.30
2023-04-11T16:40:46.747Z,64.59
2023-04-11T16:43:13.277Z,64.81
2023-04-11T16:45:40.529Z,67.26
2023-04-11T16:48:08.161Z,69.58
2023-04-11T16:50:35.268Z,65.00
2023-04-11T16:53:02.027Z,66.37
2023-04-11T16:55:28.664Z,66.17
2023-04-11T16:57:55.861Z,66.25
2023-04-11T17:00:23.905Z,67.67
2023-04-11T17:02:50.862Z,67.07
2023-04-11T17:05:19.135Z,67.95
2023-04-11T17:10:21.759Z,69.57
2023-04-11T17:12:48.280Z,70.03
2023-04-11T17:15:14.818Z,71.30
2023-04-11T17:17:41.779Z,73.85
2023-04-11T17:20:10.224Z,74.14
2023-04-11T17:22:36.949Z,78.54
2023-04-11T17:25:04.127Z,77.68
2023-04-11T17:27:30.763Z,74.83
2023-04-11T17:29:57.349Z,76.23
2023-04-11T17:32:24.110Z,77.87
2023-04-11T17:34:51.026Z,79.29
2023-04-11T17:37:17.553Z,81.27
2023-04-11T17:39:44.171Z,78.30
2023-04-11T17:42:13.687Z,81.31
2023-04-11T17:44:40.795Z,87.72
2023-04-11T17:47:07.427Z,89.86
2023-04-11T17:49:34.024Z,91.38
2023-04-11T17:52:00.578Z,97.41
2023-04-11T17:54:27.484Z,99.59
2023-04-11T17:56:54.267Z,99.82
2023-04-11T17:59:21.301Z,98.94
2023-04-11T18:01:48.013Z,100.00
2023-04-11T18:04:15.414Z,100.00
2023-04-11T18:06:42.581Z,100.00
2023-04-11T18:11:49.594Z,100.00
2023-04-11T18:14:16.111Z,100.00
2023-04-11T18:16:42.684Z,100.00
2023-04-11T18:19:09.355Z,100.00
2023-04-11T18:21:35.997Z,100.00
2023-04-11T18:24:04.058Z,100.00
2023-04-11T18:26:31.601Z,100.00
2023-04-11T18:29:00.364Z,100.00
2023-04-11T18:31:27.249Z,100.00
2023-04-11T18:33:54.259Z,100.00
2023-04-11T18:36:21.862Z,100.00
2023-04-11T18:38:49.258Z,100.00
2023-04-11T18:41:17.498Z,100.00
2023-04-11T18:43:44.921Z,100.00
2023-04-11T18:46:11.551Z,100.00
2023-04-11T18:48:38.211Z,100.00
2023-04-11T18:51:05.168Z,100.00
2023-04-11T18:53:32.454Z,100.00
2023-04-11T18:56:03.056Z,100.00
2023-04-11T18:58:31.735Z,100.00
2023-04-11T19:01:03.605Z,100.00
2023-04-11T19:03:36.712Z,100.00
2023-04-11T19:06:07.544Z,100.00
2023-04-11T19:08:34.143Z,100.00
2023-04-11T19:11:01.288Z,100.00
2023-04-11T19:13:27.857Z,100.00
2023-04-11T19:15:54.867Z,100.00
2023-04-11T19:18:21.517Z,100.00
2023-04-11T19:20:48.486Z,100.00
2023-04-11T19:23:15.054Z,100.00
2023-04-11T19:25:41.666Z,100.00
2023-04-11T19:28:16.525Z,100.00
2023-04-11T19:30:43.550Z,100.00
2023-04-11T19:33:10.490Z,100.00
2023-04-11T19:35:38.149Z,100.00
2023-04-11T19:38:18.365Z,100.00
2023-04-11T19:40:48.459Z,100.00
2023-04-11T19:43:17.203Z,100.00
2023-04-11T19:45:44.246Z,100.00
2023-04-11T19:48:11.693Z,100.00
2023-04-11T19:50:38.490Z,100.00
2023-04-11T19:53:05.342Z,100.00
2023-04-11T19:55:32.047Z,100.00
2023-04-11T19:57:58.923Z,100.00
2023-04-11T20:00:27.270Z,100.00
2023-04-11T20:02:55.068Z,100.00
2023-04-11T20:05:22.208Z,100.00
2023-04-11T20:07:48.956Z,100.00
2023-04-11T20:10:17.209Z,100.00
2023-04-11T20:12:44.192Z,100.00
2023-04-11T20:15:11.435Z,100.00
2023-04-11T20:17:38.308Z,100.00
2023-04-11T20:20:06.078Z,100.00
2023-04-11T20:22:33.211Z,100.00
2023-04-11T20:24:59.833Z,100.00
2023-04-11T20:27:28.172Z,100.00
2023-04-11T20:29:56.707Z,100.00
2023-04-11T20:32:23.636Z,100.00
2023-04-11T20:34:50.562Z,100.00
2023-04-11T20:37:18.889Z,100.00
2023-04-11T20:39:45.857Z,100.00
2023-04-11T20:42:12.446Z,100.00
2023-04-11T20:44:39.061Z,100.00
2023-04-11T20:47:05.641Z,100.00
2023-04-11T20:49:32.339Z,100.00
2023-04-11T20:52:00.063Z,100.00
2023-04-11T20:54:27.618Z,100.00
2023-04-11T20:56:55.902Z,100.00
2023-04-11T20:59:22.636Z,100.00
2023-04-11T21:01:49.386Z,100.00
2023-04-11T21:04:29.563Z,100.00
2023-04-11T21:09:50.769Z,100.00
2023-04-11T21:12:24.793Z,100.00
2023-04-11T21:15:01.567Z,100.00
2023-04-11T21:17:55.334Z,100.00
2023-04-11T21:26:31.604Z,100.00
2023-04-11T21:29:18.479Z,100.00
2023-04-11T21:32:02.722Z,100.00
2023-04-11T21:34:29.401Z,100.00
2023-04-11T21:36:57.165Z,100.00
2023-04-11T21:39:26.686Z,100.00
2023-04-11T21:41:53.340Z,100.00
2023-04-11T21:44:20.086Z,100.00
2023-04-11T21:46:46.806Z,100.00
2023-04-11T21:49:15.604Z,100.00
2023-04-11T21:51:47.792Z,100.00
2023-04-11T21:54:31.939Z,100.00
2023-04-11T21:56:58.585Z,100.00
2023-04-11T21:59:25.554Z,100.00
2023-04-11T22:01:52.578Z,100.00
2023-04-11T22:04:23.206Z,100.00
2023-04-11T22:06:50.146Z,100.00
2023-04-11T22:09:24.952Z,100.00
2023-04-11T22:11:51.855Z,100.00
2023-04-11T22:14:21.798Z,100.00
2023-04-11T22:16:51.298Z,100.00
2023-04-11T22:19:30.916Z,100.00
2023-04-11T22:22:10.776Z,100.00
2023-04-11T22:24:38.426Z,100.00
2023-04-11T22:27:10.310Z,100.00
2023-04-11T22:29:36.916Z,100.00
2023-04-11T22:32:05.306Z,100.00
2023-04-11T22:34:34.381Z,100.00
2023-04-11T22:37:02.590Z,100.00
2023-04-11T22:39:29.394Z,100.00
2023-04-11T22:41:56.220Z,100.00
2023-04-11T22:44:23.080Z,100.00
2023-04-11T22:47:01.192Z,100.00
2023-04-11T22:49:27.842Z,100.00
2023-04-11T22:51:59.287Z,100.00
2023-04-11T22:54:27.264Z,100.00
2023-04-11T22:56:56.777Z,100.00
2023-04-11T22:59:25.834Z,100.00
2023-04-11T23:01:52.724Z,100.00
2023-04-11T23:04:20.699Z,100.00
2023-04-11T23:06:50.776Z,100.00
2023-04-11T23:09:21.001Z,100.00
2023-04-11T23:11:48.907Z,100.00
2023-04-11T23:14:29.882Z,100.00
2023-04-11T23:16:57.161Z,100.00
2023-04-11T23:19:27.270Z,100.00
2023-04-11T23:21:55.804Z,100.00
2023-04-11T23:24:24.962Z,100.00
2023-04-11T23:27:01.540Z,100.00
2023-04-11T23:29:28.454Z,100.00
2023-04-11T23:31:55.120Z,100.00
2023-04-11T23:34:22.226Z,100.00
2023-04-11T23:36:51.077Z,100.00
2023-04-11T23:39:17.910Z,100.00
2023-04-11T23:41:44.989Z,100.00
2023-04-11T23:44:11.687Z,100.00
2023-04-11T23:46:41.853Z,100.00
2023-04-11T23:49:08.673Z,100.00
2023-04-11T23:51:38.322Z,100.00
2023-04-11T23:54:07.226Z,100.00
2023-04-11T23:56:34.497Z,100.00
2023-04-11T23:59:01.165Z,100.00
